Time;durP1;ratioP1;P1;durP2;ratioP2;P2;SDS_P1;SDS_P2;PMS_P1;PMS_P2;Temp;Humidity;BMP_temperature;BMP_pressure;BME280_temperature;BME280_humidity;BME280_pressure;Samples;Min_cycle;Max_cycle;Signal;HPM_P1;HPM_P2
2021/11/10 00:00:21;;;;;;;54.60;15.38;;;;;;;8.52;99.13;102616.59;5032999;28;20029;-85
2021/11/10 00:02:47;;;;;;;50.60;14.57;;;;;;;8.52;99.28;102618.41;5033585;28;20029;-83
2021/11/10 00:05:13;;;;;;;58.78;14.75;;;;;;;8.50;98.99;102613.19;5033361;28;20040;-83
2021/11/10 00:07:38;;;;;;;58.25;15.95;;;;;;;8.51;98.83;102616.69;5015378;28;20469;-83
2021/11/10 00:10:05;;;;;;;54.10;15.65;;;;;;;8.50;99.15;102615.84;5033369;28;20033;-83
2021/11/10 00:12:31;;;;;;;52.60;15.95;;;;;;;8.47;99.60;102614.19;5033145;28;20116;-83
2021/11/10 00:14:57;;;;;;;57.20;16.70;;;;;;;8.46;99.36;102615.16;5015523;28;20366;-84
2021/11/10 00:17:22;;;;;;;61.85;15.82;;;;;;;8.45;99.25;102613.44;5033147;28;20062;-83
2021/11/10 00:19:47;;;;;;;60.15;16.33;;;;;;;8.44;98.82;102622.31;5033711;28;20107;-83
2021/11/10 00:22:13;;;;;;;45.17;15.40;;;;;;;8.44;99.07;102617.03;5033354;28;20029;-84
2021/11/10 00:24:39;;;;;;;55.05;16.73;;;;;;;8.43;98.99;102620.59;5015005;28;20050;-82
2021/11/10 00:27:05;;;;;;;46.50;15.68;;;;;;;8.44;98.75;102621.47;5033374;28;20033;-82
2021/11/10 00:29:30;;;;;;;45.28;15.55;;;;;;;8.44;98.56;102621.47;4998544;28;20033;-84
2021/11/10 00:31:55;;;;;;;58.72;16.98;;;;;;;8.41;98.86;102613.66;5032977;28;20172;-83
2021/11/10 00:34:23;;;;;;;43.33;15.30;;;;;;;8.39;99.33;102604.91;5015188;28;20058;-85
2021/11/10 00:36:50;;;;;;;46.70;14.80;;;;;;;8.36;98.98;102608.59;5033298;28;20397;-83
2021/11/10 00:39:15;;;;;;;51.63;14.90;;;;;;;8.33;99.02;102608.75;5032991;28;20040;-84
2021/11/10 00:41:40;;;;;;;54.08;15.10;;;;;;;8.30;99.42;102607.13;5032370;28;20041;-83
2021/11/10 00:44:06;;;;;;;45.42;14.95;;;;;;;8.28;99.84;102597.53;5032575;28;20037;-82
2021/11/10 00:46:32;;;;;;;47.33;14.60;;;;;;;8.24;100.00;102601.28;5014729;28;20103;-83
2021/11/10 00:48:58;;;;;;;45.42;15.00;;;;;;;8.21;99.98;102591.69;5032973;28;20116;-83
2021/11/10 00:51:24;;;;;;;49.08;14.25;;;;;;;8.22;100.00;102592.53;5032518;28;20037;-84
2021/11/10 00:53:49;;;;;;;45.90;13.52;;;;;;;8.21;100.00;102594.34;5032999;28;20033;-83
2021/11/10 00:56:15;;;;;;;43.65;14.48;;;;;;;8.20;100.00;102582.03;5038677;28;20034;-84
2021/11/10 00:58:40;;;;;;;38.05;14.05;;;;;;;8.23;100.00;102588.97;5036558;28;20519;-83
2021/11/10 01:01:05;;;;;;;45.83;13.40;;;;;;;8.21;100.00;102585.53;5033049;28;20207;-85
2021/11/10 01:03:31;;;;;;;47.92;14.32;;;;;;;8.21;100.00;102581.09;4982111;28;20474;-85
2021/11/10 01:05:57;;;;;;;42.03;13.90;;;;;;;8.19;100.00;102580.31;5032809;28;20030;-84
2021/11/10 01:08:24;;;;;;;44.03;13.25;;;;;;;8.20;100.00;102578.53;5032297;28;20048;-84
2021/11/10 01:10:50;;;;;;;41.80;13.40;;;;;;;8.19;100.00;102575.00;5032455;28;20065;-84
2021/11/10 01:13:15;;;;;;;30.73;11.90;;;;;;;8.19;100.00;102569.69;5034279;28;20064;-85
2021/11/10 01:15:42;;;;;;;38.80;12.23;;;;;;;8.19;100.00;102567.03;5018385;28;20026;-86
2021/11/10 01:18:08;;;;;;;40.45;12.30;;;;;;;8.20;100.00;102565.25;5036871;28;20034;-85
2021/11/10 01:20:34;;;;;;;38.97;12.07;;;;;;;8.19;99.91;102563.53;5018599;28;20435;-85
2021/11/10 01:23:00;;;;;;;35.05;11.68;;;;;;;8.21;100.00;102565.19;5036500;28;20033;-85
2021/11/10 01:25:26;;;;;;;35.03;11.18;;;;;;;8.24;99.58;102562.38;5036097;28;20037;-84
2021/11/10 01:27:51;;;;;;;34.83;10.85;;;;;;;8.24;99.52;102562.38;5036291;28;20033;-84
2021/11/10 01:30:17;;;;;;;43.88;11.55;;;;;;;8.24;99.62;102565.03;5036269;28;20062;-84
2021/11/10 01:32:43;;;;;;;41.65;11.60;;;;;;;8.23;99.43;102554.50;5036381;28;20037;-85
2021/11/10 01:35:09;;;;;;;45.90;12.68;;;;;;;8.22;99.70;102553.63;5036535;28;20040;-86
2021/11/10 01:37:35;;;;;;;30.80;11.27;;;;;;;8.21;99.73;102556.34;5036229;28;20031;-85
2021/11/10 01:40:00;;;;;;;37.03;11.00;;;;;;;8.25;99.80;102544.66;5036320;28;20117;-85
2021/11/10 01:42:30;;;;;;;31.13;10.88;;;;;;;8.26;99.44;102539.25;5035843;28;20061;-85
2021/11/10 01:44:56;;;;;;;30.00;10.95;;;;;;;8.31;99.53;102544.31;5036049;28;20060;-85
2021/11/10 01:47:21;;;;;;;31.80;10.43;;;;;;;8.32;99.28;102537.22;5036347;28;20033;-84
2021/11/10 01:49:46;;;;;;;35.22;11.55;;;;;;;8.32;99.40;102537.22;5035672;28;20257;-85
2021/11/10 01:52:12;;;;;;;37.33;11.25;;;;;;;8.32;99.44;102529.28;5036197;28;20036;-85
2021/11/10 01:54:39;;;;;;;37.38;10.77;;;;;;;8.33;99.44;102530.97;5035430;28;20358;-85
2021/11/10 01:57:07;;;;;;;37.20;11.73;;;;;;;8.38;99.14;102523.63;5035685;28;20068;-84
2021/11/10 01:59:41;;;;;;;32.38;11.52;;;;;;;8.41;98.99;102520.81;5035381;28;20065;-84
2021/11/10 02:02:10;;;;;;;29.20;11.35;;;;;;;8.40;98.80;102514.63;5035917;28;20465;-84
2021/11/10 02:04:38;;;;;;;33.50;11.88;;;;;;;8.39;98.81;102501.47;5035301;28;20108;-85
2021/11/10 02:07:04;;;;;;;47.00;13.45;;;;;;;8.38;98.66;102503.25;5035722;28;20034;-84
2021/11/10 02:09:30;;;;;;;37.67;12.07;;;;;;;8.39;98.76;102507.63;5035178;28;20497;-83
2021/11/10 02:11:57;;;;;;;35.33;12.13;;;;;;;8.42;98.54;102499.50;5035840;28;20041;-84
2021/11/10 02:14:25;;;;;;;32.38;12.82;;;;;;;8.42;97.60;102493.31;5035726;28;20037;-83
2021/11/10 02:16:52;;;;;;;28.15;12.07;;;;;;;8.41;97.58;102500.44;5034870;28;20127;-85
2021/11/10 02:19:19;;;;;;;34.83;13.07;;;;;;;8.39;97.99;102490.84;5035537;28;20068;-85
2021/11/10 02:21:52;;;;;;;38.22;13.48;;;;;;;8.35;98.11;102484.88;5035046;28;20044;-85
2021/11/10 02:24:18;;;;;;;31.75;12.57;;;;;;;8.31;98.24;102467.41;5033895;28;20489;-84
2021/11/10 02:26:45;;;;;;;40.70;13.00;;;;;;;8.25;98.31;102467.75;5035097;28;20508;-84
2021/11/10 02:29:20;;;;;;;35.00;12.30;;;;;;;8.17;98.30;102465.53;5035555;28;20049;-84
2021/11/10 02:31:46;;;;;;;38.78;12.30;;;;;;;8.13;98.49;102474.56;5034923;28;20026;-85
2021/11/10 02:34:12;;;;;;;31.52;12.63;;;;;;;8.09;98.49;102471.25;5035282;28;20061;-84
2021/11/10 02:36:38;;;;;;;40.90;12.98;;;;;;;8.05;98.96;102476.78;5034652;28;20061;-85
2021/11/10 02:39:08;;;;;;;34.30;12.45;;;;;;;8.04;99.43;102489.16;5034964;28;20099;-84
2021/11/10 02:41:33;;;;;;;29.75;12.65;;;;;;;8.04;99.68;102489.16;5035177;28;20028;-83
2021/11/10 02:43:59;;;;;;;28.45;12.93;;;;;;;8.06;99.72;102499.69;5034922;28;20029;-84
2021/11/10 02:46:25;;;;;;;32.75;12.48;;;;;;;8.07;99.79;102496.13;5035218;28;20038;-84
2021/11/10 02:48:51;;;;;;;33.45;12.98;;;;;;;8.09;99.79;102492.44;5034505;28;20036;-84
2021/11/10 02:51:16;;;;;;;26.52;12.45;;;;;;;8.12;99.70;102483.44;5034805;28;20061;-84
2021/11/10 02:53:42;;;;;;;35.60;13.32;;;;;;;8.12;99.84;102486.97;5034407;28;20555;-83
2021/11/10 02:56:08;;;;;;;31.63;12.85;;;;;;;8.19;99.59;102476.03;5034787;28;20096;-84
2021/11/10 02:58:35;;;;;;;31.52;12.57;;;;;;;8.19;99.52;102478.69;5034883;28;20112;-84
2021/11/10 03:01:02;;;;;;;39.67;13.32;;;;;;;8.20;99.32;102477.75;5035115;28;20047;-84
2021/11/10 03:03:27;;;;;;;38.78;12.20;;;;;;;8.19;99.22;102474.22;5034829;28;20037;-84
2021/11/10 03:05:53;;;;;;;26.25;11.13;;;;;;;8.21;99.27;102482.09;5034075;28;20036;-84
2021/11/10 03:08:22;;;;;;;35.50;12.18;;;;;;;8.24;99.06;102488.13;5017145;28;20378;-84
2021/11/10 03:10:49;;;;;;;30.50;10.93;;;;;;;8.25;98.58;102486.31;5034161;28;20490;-85
2021/11/10 03:13:15;;;;;;;29.55;11.68;;;;;;;8.27;98.76;102500.31;5016958;28;20036;-85
2021/11/10 03:15:42;;;;;;;29.73;11.77;;;;;;;8.26;98.78;102477.41;5034213;28;20026;-84
2021/11/10 03:18:08;;;;;;;31.85;12.15;;;;;;;8.26;98.75;102488.88;5034403;28;20461;-84
2021/11/10 03:20:34;;;;;;;29.77;11.68;;;;;;;8.25;98.06;102484.50;5034254;28;20112;-84
2021/11/10 03:23:00;;;;;;;33.30;12.15;;;;;;;8.28;98.24;102484.38;5033874;28;20381;-84
2021/11/10 03:25:25;;;;;;;35.72;11.57;;;;;;;8.29;97.36;102483.41;5034385;28;20482;-84
2021/11/10 03:27:51;;;;;;;35.38;11.20;;;;;;;8.28;97.48;102489.66;5033766;28;20116;-83
2021/11/10 03:30:17;;;;;;;32.72;12.32;;;;;;;8.28;97.77;102486.13;5034157;28;20037;-83
2021/11/10 03:32:42;;;;;;;36.63;11.57;;;;;;;8.26;97.88;102482.72;5033759;28;20064;-84
2021/11/10 03:35:09;;;;;;;39.72;13.15;;;;;;;8.24;98.20;102484.59;4999500;28;20083;-84
2021/11/10 03:37:35;;;;;;;39.65;12.32;;;;;;;8.21;97.12;102482.09;5034202;28;20041;-84
2021/11/10 03:40:02;;;;;;;42.22;13.07;;;;;;;8.22;96.97;102483.81;5033732;28;20375;-84
2021/11/10 03:42:28;;;;;;;42.95;12.95;;;;;;;8.19;97.08;102486.66;5034037;28;20038;-84
2021/11/10 03:44:53;;;;;;;39.80;12.35;;;;;;;8.19;97.37;102490.16;5033614;28;20057;-84
2021/11/10 03:47:19;;;;;;;39.42;12.52;;;;;;;8.19;97.36;102484.84;5033911;28;20065;-84
2021/11/10 03:49:44;;;;;;;43.00;14.00;;;;;;;8.19;97.37;102486.66;5033373;28;20056;-84
2021/11/10 03:52:11;;;;;;;39.72;13.30;;;;;;;8.20;96.70;102480.41;5034144;28;20040;-84
2021/11/10 03:54:37;;;;;;;40.05;12.98;;;;;;;8.20;96.49;102491.88;5033871;28;20038;-83
2021/11/10 03:57:03;;;;;;;40.70;12.60;;;;;;;8.21;96.22;102496.25;5033261;28;20041;-83
2021/11/10 03:59:28;;;;;;;35.00;11.63;;;;;;;8.21;96.65;102495.34;5033664;28;20026;-83
2021/11/10 04:01:53;;;;;;;36.47;12.02;;;;;;;8.20;96.91;102491.03;5015749;28;20059;-83
2021/11/10 04:04:19;;;;;;;46.15;14.07;;;;;;;8.18;97.23;102491.09;5033484;28;20037;-83
2021/11/10 04:06:44;;;;;;;39.20;13.73;;;;;;;8.15;97.44;102485.09;5033265;28;20033;-83
2021/11/10 04:09:10;;;;;;;44.80;13.80;;;;;;;8.14;97.50;102491.34;5033974;28;20395;-83
2021/11/10 04:11:35;;;;;;;50.08;15.98;;;;;;;8.12;97.78;102494.94;5033383;28;20041;-83
2021/11/10 04:14:02;;;;;;;40.17;13.60;;;;;;;8.11;97.45;102498.53;5032818;28;20054;-83
2021/11/10 04:16:28;;;;;;;36.13;13.45;;;;;;;8.10;97.72;102490.66;5033398;28;20036;-83
2021/11/10 04:18:55;;;;;;;50.95;14.18;;;;;;;8.09;97.82;102486.28;5015031;28;20125;-83
2021/11/10 04:21:22;;;;;;;49.05;15.15;;;;;;;8.07;98.05;102488.16;5033177;28;20033;-82
2021/11/10 04:23:50;;;;;;;50.58;15.93;;;;;;;8.05;98.02;102492.69;5032832;28;20034;-83
2021/11/10 04:26:17;;;;;;;52.47;15.65;;;;;;;8.04;97.90;102491.81;5033548;28;20553;-83
2021/11/10 04:28:42;;;;;;;48.42;16.13;;;;;;;8.03;98.18;102489.25;5037895;28;20029;-83
2021/11/10 04:31:07;;;;;;;45.50;15.02;;;;;;;8.01;97.90;102492.00;5034930;28;20113;-83
2021/11/10 04:33:33;;;;;;;48.95;15.63;;;;;;;8.00;97.94;102494.72;5037411;28;20038;-84
2021/11/10 04:35:58;;;;;;;52.13;14.93;;;;;;;7.98;98.09;102497.47;5032439;28;20034;-83
2021/11/10 04:38:23;;;;;;;47.80;15.45;;;;;;;7.95;98.09;102493.16;5033038;28;20051;-82
2021/11/10 04:40:49;;;;;;;49.40;15.48;;;;;;;7.93;97.52;102495.06;5032515;28;20378;-83
2021/11/10 04:43:15;;;;;;;42.00;13.68;;;;;;;7.95;97.55;102489.66;5015042;28;20095;-83
2021/11/10 04:45:42;;;;;;;49.30;15.23;;;;;;;7.93;97.53;102486.25;5032563;28;20056;-82
2021/11/10 04:48:07;;;;;;;43.53;14.32;;;;;;;7.91;97.57;102493.41;5031471;28;20136;-83
2021/11/10 04:50:33;;;;;;;42.70;13.75;;;;;;;7.94;97.59;102511.81;5032868;28;20029;-83
2021/11/10 04:52:59;;;;;;;54.00;13.93;;;;;;;7.91;96.84;102507.53;5032242;28;20385;-83
2021/11/10 04:55:25;;;;;;;47.63;13.95;;;;;;;7.90;96.78;102515.56;5033345;28;20135;-83
2021/11/10 04:57:51;;;;;;;41.35;13.55;;;;;;;7.89;96.68;102519.16;5034579;28;20033;-84
2021/11/10 05:00:16;;;;;;;44.72;13.30;;;;;;;7.86;97.12;102520.16;5034057;28;20462;-83
2021/11/10 05:02:42;;;;;;;33.88;12.23;;;;;;;7.82;97.59;102513.31;5034502;28;20041;-83
2021/11/10 05:05:08;;;;;;;51.85;14.48;;;;;;;7.81;98.06;102527.50;5032615;28;20100;-84
2021/11/10 05:07:34;;;;;;;42.58;13.65;;;;;;;7.78;98.19;102522.38;5032653;28;20022;-83
2021/11/10 05:10:00;;;;;;;36.58;13.52;;;;;;;7.78;98.03;102522.38;5032095;28;20033;-84
2021/11/10 05:12:25;;;;;;;35.78;13.55;;;;;;;7.79;98.01;102517.91;5032527;28;20116;-86
2021/11/10 05:14:55;;;;;;;39.15;13.25;;;;;;;7.77;97.56;102518.00;5032226;28;20481;-84
2021/11/10 05:17:20;;;;;;;37.85;13.13;;;;;;;7.79;97.12;102509.97;5015097;28;20064;-84
2021/11/10 05:19:47;;;;;;;37.50;12.38;;;;;;;7.77;96.61;102515.34;5032614;28;20033;-84
2021/11/10 05:22:13;;;;;;;36.85;12.70;;;;;;;7.78;96.80;102511.78;5032123;28;20030;-85
2021/11/10 05:24:39;;;;;;;39.20;12.88;;;;;;;7.78;96.79;102506.47;5032396;28;20068;-84
2021/11/10 05:27:04;;;;;;;41.25;13.80;;;;;;;7.79;97.17;102507.31;5031844;28;20125;-83
2021/11/10 05:29:30;;;;;;;39.88;13.23;;;;;;;7.76;97.36;102498.59;5032811;28;20045;-85
2021/11/10 05:31:55;;;;;;;45.15;13.65;;;;;;;7.79;96.99;102497.56;5031802;28;20527;-85
2021/11/10 05:34:21;;;;;;;31.20;11.60;;;;;;;7.78;96.43;102503.81;5014902;28;20540;-85
2021/11/10 05:36:46;;;;;;;28.90;11.85;;;;;;;7.79;96.53;102499.38;5015140;28;20098;-84
2021/11/10 05:39:12;;;;;;;40.13;12.52;;;;;;;7.79;96.58;102508.16;5014407;28;20500;-85
2021/11/10 05:41:37;;;;;;;40.97;13.07;;;;;;;7.77;96.79;102500.28;5014938;28;20041;-86
2021/11/10 05:44:03;;;;;;;34.22;12.02;;;;;;;7.77;97.18;102500.28;5031931;28;20033;-85
2021/11/10 05:46:28;;;;;;;41.10;12.02;;;;;;;7.75;97.43;102491.59;5032425;28;20115;-85
2021/11/10 05:48:53;;;;;;;33.10;12.30;;;;;;;7.77;97.06;102502.09;4998274;28;20038;-85
2021/11/10 05:51:19;;;;;;;36.33;12.25;;;;;;;7.77;97.21;102500.28;4998384;28;20038;-85
2021/11/10 05:53:45;;;;;;;28.98;11.90;;;;;;;7.76;97.46;102501.25;5032627;28;20072;-85
2021/11/10 05:56:18;;;;;;;36.88;12.45;;;;;;;7.76;97.50;102509.22;5031559;28;20021;-84
2021/11/10 05:58:44;;;;;;;37.85;12.65;;;;;;;7.79;97.41;102515.28;5015432;28;20448;-84
2021/11/10 06:01:09;;;;;;;40.72;14.18;;;;;;;7.79;97.74;102517.91;5035440;28;20029;-83
2021/11/10 06:03:35;;;;;;;44.28;12.75;;;;;;;7.78;97.36;102506.47;5035990;28;20029;-84
2021/11/10 06:06:01;;;;;;;30.77;11.48;;;;;;;7.79;96.95;102512.63;5017726;28;20083;-84
2021/11/10 06:08:26;;;;;;;32.47;11.50;;;;;;;7.79;96.51;102518.75;5035874;28;20466;-83
2021/11/10 06:10:51;;;;;;;41.55;11.68;;;;;;;7.80;96.56;102517.00;5036076;28;20126;-84
2021/11/10 06:13:17;;;;;;;37.72;11.50;;;;;;;7.79;96.94;102512.63;5035236;28;20029;-85
2021/11/10 06:15:42;;;;;;;34.97;11.23;;;;;;;7.77;96.82;102520.66;5035442;28;20030;-83
2021/11/10 06:18:08;;;;;;;28.23;11.07;;;;;;;7.77;96.86;102524.16;5035519;28;20187;-89
2021/11/10 06:20:35;;;;;;;28.67;11.48;;;;;;;7.77;97.09;102518.00;5017988;28;20030;-79
2021/11/10 06:23:02;;;;;;;31.35;11.27;;;;;;;7.77;97.00;102521.50;5034845;28;20034;-77
2021/11/10 06:25:27;;;;;;;37.33;11.25;;;;;;;7.76;97.00;102525.09;5035343;28;20064;-80
2021/11/10 06:27:53;;;;;;;40.08;11.60;;;;;;;7.76;97.39;102526.88;5035317;28;20064;-79
2021/11/10 06:30:18;;;;;;;31.75;11.60;;;;;;;7.75;97.39;102533.13;5034762;28;20527;-79
2021/11/10 06:32:45;;;;;;;29.75;11.55;;;;;;;7.73;97.24;102535.00;5035425;28;20025;-79
2021/11/10 06:35:12;;;;;;;33.83;10.63;;;;;;;7.75;96.48;102535.78;5034819;28;20118;-79
2021/11/10 06:37:37;;;;;;;32.58;10.77;;;;;;;7.74;96.38;102523.47;5035218;28;20025;-79
2021/11/10 06:40:04;;;;;;;32.95;11.35;;;;;;;7.74;96.48;102520.81;5016688;28;20034;-78
2021/11/10 06:42:29;;;;;;;34.08;11.40;;;;;;;7.73;96.58;102521.75;5034875;28;20044;-79
2021/11/10 06:44:56;;;;;;;37.35;11.00;;;;;;;7.72;95.87;102523.53;5036077;28;20053;-83
2021/11/10 06:47:22;;;;;;;37.35;11.68;;;;;;;7.73;96.19;102529.69;5036358;28;20034;-81
2021/11/10 06:49:47;;;;;;;32.20;10.70;;;;;;;7.72;96.40;102526.19;5036736;28;20033;-78
2021/11/10 06:52:13;;;;;;;33.65;11.70;;;;;;;7.71;96.48;102526.28;5035081;28;20092;-83
2021/11/10 06:54:38;;;;;;;35.35;12.15;;;;;;;7.72;96.47;102525.34;5018566;28;20469;-84
2021/11/10 06:57:04;;;;;;;30.10;11.52;;;;;;;7.70;96.67;102530.72;5017271;28;20096;-81
2021/11/10 06:59:29;;;;;;;31.77;11.88;;;;;;;7.69;96.84;102530.81;5030269;28;20482;-89
2021/11/10 07:01:54;;;;;;;33.80;11.15;;;;;;;7.68;96.19;102534.38;5019525;28;20464;-88
2021/11/10 07:04:20;;;;;;;30.38;10.73;;;;;;;7.66;95.64;102537.09;5023039;28;20402;-87
2021/11/10 07:06:45;;;;;;;29.02;11.52;;;;;;;7.68;95.26;102545.81;5019837;28;20445;-84
2021/11/10 07:09:11;;;;;;;33.40;11.77;;;;;;;7.69;94.97;102552.84;5033945;28;20117;-84
2021/11/10 07:11:37;;;;;;;29.55;10.75;;;;;;;7.69;95.76;102550.19;5031956;28;20048;-85
2021/11/10 07:14:04;;;;;;;34.92;12.10;;;;;;;7.68;95.58;102551.13;5032847;28;20033;-83
2021/11/10 07:16:30;;;;;;;38.67;11.57;;;;;;;7.72;95.43;102557.13;5031581;28;20038;-86
2021/11/10 07:18:56;;;;;;;40.10;11.98;;;;;;;7.73;95.44;102565.00;5032195;28;20305;-88
2021/11/10 07:21:21;;;;;;;39.38;11.07;;;;;;;7.73;95.67;102575.59;5013606;28;20075;-83
2021/11/10 07:23:47;;;;;;;33.58;11.15;;;;;;;7.75;95.87;102570.22;5013489;28;20481;-78
2021/11/10 07:26:12;;;;;;;33.28;11.82;;;;;;;7.76;95.54;102566.63;5031150;28;20037;-83
2021/11/10 07:28:38;;;;;;;39.13;12.43;;;;;;;7.77;95.74;102566.53;5031300;28;20493;-83
2021/11/10 07:31:03;;;;;;;39.17;12.27;;;;;;;7.80;95.20;102576.13;5031376;28;20037;-83
2021/11/10 07:33:29;;;;;;;31.88;11.52;;;;;;;7.80;94.62;102580.59;5032562;28;20041;-83
2021/11/10 07:35:54;;;;;;;26.27;11.20;;;;;;;7.83;94.28;102585.72;5031252;28;20115;-82
2021/11/10 07:38:24;;;;;;;28.52;11.68;;;;;;;7.84;94.87;102580.34;5030987;28;20151;-81
2021/11/10 07:40:50;;;;;;;32.50;12.20;;;;;;;7.84;94.18;102580.34;5031863;28;20037;-82
2021/11/10 07:43:15;;;;;;;34.97;12.68;;;;;;;7.86;94.43;102577.63;5030773;28;20524;-82
2021/11/10 07:45:49;;;;;;;30.23;11.82;;;;;;;7.88;93.81;102557.19;5031389;28;20045;-81
2021/11/10 07:48:15;;;;;;;24.20;11.70;;;;;;;7.91;92.41;102551.72;5013277;28;20552;-88
2021/11/10 07:50:42;;;;;;;27.30;11.35;;;;;;;7.97;91.45;102556.69;4999424;28;20135;-89
2021/11/10 07:53:07;;;;;;;39.70;12.63;;;;;;;7.97;91.94;102546.09;5031422;28;20033;-91
2021/11/10 07:55:33;;;;;;;26.17;11.25;;;;;;;7.99;91.72;102528.34;5032449;28;20040;-87
2021/11/10 07:57:58;;;;;;;36.30;12.50;;;;;;;8.04;91.23;102533.41;5031460;28;20037;-86
2021/11/10 08:00:25;;;;;;;39.28;12.65;;;;;;;8.05;90.92;102535.97;5031155;28;20160;-88
2021/11/10 08:02:50;;;;;;;30.30;12.40;;;;;;;8.11;90.22;102527.69;5031698;28;20167;-91
2021/11/10 08:05:16;;;;;;;28.15;11.27;;;;;;;8.16;90.22;102521.28;5013667;28;20190;-86
2021/11/10 08:07:42;;;;;;;30.10;11.82;;;;;;;8.15;89.73;102520.44;5015018;28;20038;-81
2021/11/10 08:10:12;;;;;;;29.77;11.75;;;;;;;8.12;89.71;102540.00;5035349;28;20033;-86
2021/11/10 08:12:38;;;;;;;39.40;12.65;;;;;;;8.08;91.05;102558.81;5032178;28;20453;-85
2021/11/10 08:15:09;;;;;;;33.28;13.43;;;;;;;8.04;90.98;102568.72;5030846;28;20478;-81
2021/11/10 08:17:36;;;;;;;41.80;13.77;;;;;;;8.00;90.49;102563.66;5030549;28;20037;-83
2021/11/10 08:20:11;;;;;;;42.70;12.57;;;;;;;7.98;90.18;102557.56;5012712;28;20041;-77
2021/11/10 08:22:37;;;;;;;37.08;11.88;;;;;;;7.97;90.05;102542.59;5030331;28;20029;-83
2021/11/10 08:25:04;;;;;;;28.88;12.43;;;;;;;7.96;89.50;102536.44;5029992;28;20081;-78
2021/11/10 08:27:30;;;;;;;25.90;11.30;;;;;;;7.97;89.18;102542.59;5029982;28;20037;-83
2021/11/10 08:29:55;;;;;;;29.67;12.75;;;;;;;7.94;90.22;102554.22;5030377;28;20041;-84
2021/11/10 08:32:21;;;;;;;31.77;12.15;;;;;;;7.98;89.44;102560.22;5012278;28;20588;-83
2021/11/10 08:34:46;;;;;;;26.60;11.88;;;;;;;8.07;89.80;102549.97;5012980;28;20079;-84
2021/11/10 08:37:12;;;;;;;38.17;12.52;;;;;;;8.18;89.52;102546.78;5012128;28;20036;-78
2021/11/10 08:39:37;;;;;;;24.55;11.40;;;;;;;8.27;89.02;102546.28;5012385;28;20035;-82
2021/11/10 08:42:04;;;;;;;29.95;11.70;;;;;;;8.39;88.20;102546.53;5012612;28;20116;-80
2021/11/10 08:44:32;;;;;;;31.38;12.30;;;;;;;8.41;86.41;102531.44;5012134;28;20227;-78
2021/11/10 08:46:57;;;;;;;36.15;11.68;;;;;;;8.50;86.35;102525.66;5029680;28;20029;-80
2021/11/10 08:49:23;;;;;;;28.17;11.82;;;;;;;8.53;86.24;102544.03;5029565;28;20136;-88
2021/11/10 08:51:49;;;;;;;35.05;11.27;;;;;;;8.57;85.50;102558.88;5012164;28;20068;-84
2021/11/10 08:54:15;;;;;;;30.88;11.68;;;;;;;8.57;86.50;102561.50;5029318;28;20049;-78
2021/11/10 08:56:41;;;;;;;28.50;10.15;;;;;;;8.57;84.65;102563.28;5030107;28;20041;-77
2021/11/10 08:59:06;;;;;;;27.30;11.25;;;;;;;8.56;85.88;102562.44;5029895;28;20025;-81
2021/11/10 09:01:32;;;;;;;30.80;10.73;;;;;;;8.57;84.76;102563.28;5029493;28;20040;-80
2021/11/10 09:03:59;;;;;;;25.33;10.30;;;;;;;8.60;86.01;102571.13;5012069;28;20473;-79
2021/11/10 09:06:24;;;;;;;25.58;10.05;;;;;;;8.65;85.27;102577.00;5029285;28;20378;-79
2021/11/10 09:08:50;;;;;;;27.67;9.77;;;;;;;8.70;84.71;102574.94;5029506;28;20104;-80
2021/11/10 09:11:16;;;;;;;31.40;11.23;;;;;;;8.79;81.24;102571.81;5029015;28;20029;-81
2021/11/10 09:13:41;;;;;;;28.42;10.15;;;;;;;8.78;83.12;102578.06;5029812;28;20446;-80
2021/11/10 09:16:07;;;;;;;29.05;10.15;;;;;;;8.81;80.56;102577.03;5029610;28;20045;-82
2021/11/10 09:18:33;;;;;;;27.40;11.20;;;;;;;8.94;81.44;102579.84;5029611;28;20083;-79
2021/11/10 09:20:58;;;;;;;25.38;9.95;;;;;;;9.00;81.02;102576.84;5030102;28;20034;-82
2021/11/10 09:23:24;;;;;;;19.67;9.65;;;;;;;9.06;78.87;102581.84;5029156;28;20495;-83
2021/11/10 09:25:51;;;;;;;25.35;9.43;;;;;;;9.10;78.59;102574.53;5030210;28;20457;-81
2021/11/10 09:28:19;;;;;;;33.03;10.32;;;;;;;9.08;78.68;102569.31;5029740;28;20440;-79
2021/11/10 09:30:49;;;;;;;32.75;10.35;;;;;;;9.10;78.37;102567.41;5029544;28;20041;-78
2021/11/10 09:33:15;;;;;;;25.13;10.35;;;;;;;9.15;80.54;102567.16;5029464;28;20440;-78
2021/11/10 09:35:42;;;;;;;24.60;10.48;;;;;;;9.33;79.45;102554.59;5032719;28;20037;-81
2021/11/10 09:38:08;;;;;;;24.42;9.88;;;;;;;9.51;79.59;102555.38;5033445;28;20068;-78
2021/11/10 09:40:41;;;;;;;23.45;10.40;;;;;;;9.62;77.16;102571.50;5033068;28;20663;-79
2021/11/10 09:43:07;;;;;;;26.33;9.90;;;;;;;9.67;78.18;102569.47;5033328;28;20040;-80
2021/11/10 09:45:34;;;;;;;28.33;9.43;;;;;;;9.71;75.53;102578.09;5032763;28;20132;-78
2021/11/10 09:48:07;;;;;;;40.00;10.48;;;;;;;9.81;75.97;102567.78;5032995;28;20091;-82
2021/11/10 09:50:34;;;;;;;26.30;9.52;;;;;;;9.84;74.85;102573.75;5032585;28;20037;-80
2021/11/10 09:53:01;;;;;;;21.77;9.48;;;;;;;9.82;76.24;102562.38;5033320;28;20042;-79
2021/11/10 09:55:29;;;;;;;25.20;9.52;;;;;;;9.92;75.37;102565.31;5032818;28;20061;-80
2021/11/10 09:57:55;;;;;;;22.67;10.00;;;;;;;10.11;74.90;102559.75;5033431;28;20045;-81
2021/11/10 10:00:26;;;;;;;25.40;9.50;;;;;;;10.28;74.65;102561.34;5032377;28;20109;-82
2021/11/10 10:02:52;;;;;;;23.90;9.32;;;;;;;10.47;75.37;102565.56;5033144;28;20044;-80
2021/11/10 10:05:21;;;;;;;18.70;9.02;;;;;;;10.65;74.46;102555.56;5032920;28;20456;-81
2021/11/10 10:07:51;;;;;;;24.20;8.93;;;;;;;10.73;71.23;102558.56;5032945;28;20025;-81
2021/11/10 10:10:19;;;;;;;27.53;9.67;;;;;;;10.79;71.39;102560.00;5032974;28;20037;-78
2021/11/10 10:12:47;;;;;;;24.27;9.77;;;;;;;10.74;72.26;102560.31;5032251;28;20288;-80
2021/11/10 10:15:13;;;;;;;29.20;9.25;;;;;;;10.72;72.80;102551.56;5033346;28;20069;-87
2021/11/10 10:17:45;;;;;;;19.70;8.77;;;;;;;10.73;72.57;102561.25;5032241;28;20116;-81
2021/11/10 10:20:27;;;;;;;21.92;8.80;;;;;;;10.79;72.11;102558.19;5032850;28;20104;-78
2021/11/10 10:22:55;;;;;;;26.77;9.63;;;;;;;10.98;71.97;102565.00;5032593;28;20037;-77
2021/11/10 10:25:35;;;;;;;24.73;9.25;;;;;;;11.22;70.55;102565.19;5032167;28;20040;-78
2021/11/10 10:28:01;;;;;;;21.88;9.30;;;;;;;11.37;70.39;102571.31;5032561;28;20603;-77
2021/11/10 10:30:26;;;;;;;21.73;8.73;;;;;;;11.58;70.46;102575.19;5031995;28;20067;-82
2021/11/10 10:33:14;;;;;;;22.52;8.90;;;;;;;11.74;71.86;102576.84;5032517;28;20132;-77
2021/11/10 10:35:48;;;;;;;31.92;9.80;;;;;;;11.89;70.16;102573.13;5031293;28;20037;-78
2021/11/10 10:38:19;;;;;;;24.38;8.63;;;;;;;12.12;69.00;102571.59;5032472;28;20036;-84
2021/11/10 10:40:48;;;;;;;26.73;8.95;;;;;;;12.25;67.35;102570.72;5032001;28;20545;-81
2021/11/10 10:43:14;;;;;;;18.35;8.85;;;;;;;12.24;66.93;102571.66;5032431;28;20021;-83
2021/11/10 10:45:52;;;;;;;21.75;8.98;;;;;;;12.32;69.42;102564.84;5012878;28;20050;-83
2021/11/10 10:48:24;;;;;;;20.27;8.27;;;;;;;12.38;67.13;102568.88;5032103;28;20026;-82
2021/11/10 10:50:52;;;;;;;22.10;8.93;;;;;;;12.59;67.50;102566.50;5031727;28;20038;-82
2021/11/10 10:53:33;;;;;;;19.73;8.35;;;;;;;12.63;67.06;102576.00;5032329;28;20098;-84
2021/11/10 10:56:00;;;;;;;20.08;9.18;;;;;;;12.56;67.54;102576.56;5032133;28;20397;-80
2021/11/10 10:58:35;;;;;;;15.27;7.90;;;;;;;12.74;67.18;102577.06;5032047;28;20367;-82
2021/11/10 11:01:17;;;;;;;19.10;7.88;;;;;;;12.90;66.23;102568.75;5032121;28;20859;-83
2021/11/10 11:03:58;;;;;;;17.13;7.72;;;;;;;12.94;65.45;102559.56;5031570;28;20613;-82
2021/11/10 11:06:35;;;;;;;23.87;9.17;;;;;;;12.76;67.95;102564.44;5032226;28;20037;-81
2021/11/10 11:09:14;;;;;;;19.92;8.70;;;;;;;12.79;67.48;102550.84;5031796;28;20268;-81
2021/11/10 11:11:53;;;;;;;18.02;8.02;;;;;;;12.82;67.09;102543.47;5030785;28;20033;-82
2021/11/10 11:14:36;;;;;;;14.60;8.00;;;;;;;13.00;65.42;102554.63;5031834;28;20422;-79